Time;durP1;ratioP1;P1;durP2;ratioP2;P2;SDS_P1;SDS_P2;PMS_P1;PMS_P2;Temp;Humidity;BMP_temperature;BMP_pressure;BME280_temperature;BME280_humidity;BME280_pressure;Samples;Min_cycle;Max_cycle;Signal;HPM_P1;HPM_P2
2023/12/03 00:01:56;;;;;;;31.10;16.80;;;;;;;-2.15;92.21;99844.04;108704;279;156069;-69
2023/12/03 00:04:32;;;;;;;33.20;16.90;;;;;;;-2.16;92.19;99846.26;108887;280;38139;-69
2023/12/03 00:07:08;;;;;;;32.70;17.50;;;;;;;-2.16;92.45;99845.23;108724;280;154001;-69
2023/12/03 00:09:45;;;;;;;36.60;18.10;;;;;;;-2.16;92.49;99842.66;108843;280;39394;-69
2023/12/03 00:12:23;;;;;;;31.80;16.80;;;;;;;-2.19;92.30;99842.14;108722;279;155078;-71
2023/12/03 00:14:58;;;;;;;36.80;19.20;;;;;;;-2.18;92.47;99846.41;108876;279;38328;-72
2023/12/03 00:17:32;;;;;;;33.60;17.80;;;;;;;-2.15;92.51;99849.16;108919;280;38245;-74
2023/12/03 00:20:08;;;;;;;30.90;16.80;;;;;;;-2.15;92.35;99850.20;108739;279;154455;-73
2023/12/03 00:22:46;;;;;;;35.90;19.10;;;;;;;-2.18;92.52;99852.74;108890;280;39331;-72
2023/12/03 00:25:20;;;;;;;34.20;17.40;;;;;;;-2.18;92.66;99857.19;108694;279;154766;-71
2023/12/03 00:27:54;;;;;;;34.80;17.50;;;;;;;-2.21;92.52;99855.63;108893;279;38416;-71
2023/12/03 00:30:31;;;;;;;35.30;18.10;;;;;;;-2.21;92.59;99862.29;108750;279;155365;-71
2023/12/03 00:33:08;;;;;;;36.90;18.20;;;;;;;-2.20;92.63;99863.66;108867;279;38308;-72
2023/12/03 00:35:42;;;;;;;31.00;17.10;;;;;;;-2.18;92.77;99867.77;108869;280;39928;-69
2023/12/03 00:38:16;;;;;;;34.70;18.60;;;;;;;-2.20;92.71;99868.45;108557;280;176244;-69
2023/12/03 00:40:53;;;;;;;38.90;18.30;;;;;;;-2.18;92.98;99870.33;108801;280;39325;-71
2023/12/03 00:43:30;;;;;;;36.70;17.70;;;;;;;-2.19;92.66;99868.63;108729;279;154568;-71
2023/12/03 00:46:04;;;;;;;31.40;16.20;;;;;;;-2.20;92.67;99873.23;108842;279;38149;-73
2023/12/03 00:48:39;;;;;;;30.10;16.30;;;;;;;-2.19;92.87;99878.18;108683;279;154388;-70
2023/12/03 00:51:12;;;;;;;33.70;17.10;;;;;;;-2.17;92.84;99881.80;108850;279;38243;-69
2023/12/03 00:53:49;;;;;;;31.40;17.30;;;;;;;-2.16;92.84;99882.48;108827;280;39815;-71
2023/12/03 00:56:23;;;;;;;35.40;17.90;;;;;;;-2.17;92.90;99886.92;108723;280;39265;-73
2023/12/03 00:58:58;;;;;;;29.00;16.90;;;;;;;-2.14;92.98;99888.47;108835;280;38848;-72
2023/12/03 01:01:33;;;;;;;29.50;16.60;;;;;;;-2.10;93.04;99890.55;108721;279;154556;-73
2023/12/03 01:04:08;;;;;;;29.10;16.00;;;;;;;-2.05;92.93;99895.02;108921;279;39549;-72
2023/12/03 01:06:45;;;;;;;27.70;15.90;;;;;;;-2.03;92.91;99897.92;108635;278;173533;-70
2023/12/03 01:09:26;;;;;;;30.40;16.00;;;;;;;-2.06;92.79;99907.31;108918;278;38304;-73
2023/12/03 01:12:03;;;;;;;31.80;15.90;;;;;;;-2.09;92.86;99913.27;108892;279;38308;-72
2023/12/03 01:14:38;;;;;;;27.70;14.70;;;;;;;-2.05;92.99;99917.91;108799;279;38175;-72
2023/12/03 01:17:24;;;;;;;26.50;14.90;;;;;;;-2.02;92.83;99927.16;108905;275;39193;-73
2023/12/03 01:20:02;;;;;;;28.10;14.80;;;;;;;-1.99;92.97;99931.96;108615;279;178295;-72
2023/12/03 01:22:36;;;;;;;27.70;14.90;;;;;;;-1.97;92.77;99932.66;108843;280;38236;-72
2023/12/03 01:25:15;;;;;;;29.90;15.70;;;;;;;-1.93;93.02;99931.98;108768;279;154548;-71
2023/12/03 01:27:51;;;;;;;27.30;15.70;;;;;;;-1.92;92.98;99929.77;108875;279;38522;-71
2023/12/03 01:30:26;;;;;;;28.40;14.70;;;;;;;-1.94;92.76;99931.65;108769;278;154493;-70
2023/12/03 01:33:03;;;;;;;25.80;14.10;;;;;;;-1.91;92.91;99929.97;108728;279;173507;-71
2023/12/03 01:35:40;;;;;;;24.00;14.50;;;;;;;-1.88;92.75;99932.53;108871;279;176204;-71
2023/12/03 01:38:17;;;;;;;26.20;14.40;;;;;;;-1.87;92.55;99932.73;108706;279;155641;-71
2023/12/03 01:40:57;;;;;;;27.10;14.70;;;;;;;-1.87;92.40;99932.55;108932;280;39508;-69
2023/12/03 01:43:36;;;;;;;26.50;14.60;;;;;;;-1.85;92.63;99935.64;108769;279;153925;-72
2023/12/03 01:46:11;;;;;;;24.80;14.60;;;;;;;-1.85;92.72;99936.83;108811;280;39234;-73
2023/12/03 01:48:49;;;;;;;25.90;14.00;;;;;;;-1.85;92.64;99934.77;108759;278;156108;-71
2023/12/03 01:51:24;;;;;;;24.60;13.20;;;;;;;-1.83;92.70;99938.89;108895;278;39344;-70
2023/12/03 01:54:01;;;;;;;26.20;14.60;;;;;;;-1.82;92.42;99938.38;108990;279;38782;-71
2023/12/03 01:56:39;;;;;;;24.50;13.80;;;;;;;-1.81;92.30;99939.92;108731;280;38694;-69
2023/12/03 01:59:13;;;;;;;27.90;15.20;;;;;;;-1.83;92.32;99941.97;108865;280;38150;-71
2023/12/03 02:01:48;;;;;;;25.90;14.70;;;;;;;-1.83;92.36;99947.27;108742;279;155058;-71
2023/12/03 02:04:22;;;;;;;28.30;14.40;;;;;;;-1.87;92.16;99952.37;108743;279;176160;-73
2023/12/03 02:06:56;;;;;;;27.20;15.30;;;;;;;-1.90;92.09;99952.19;108707;278;156330;-73
2023/12/03 02:09:37;;;;;;;23.60;14.00;;;;;;;-1.90;92.04;99952.36;108930;278;38289;-71
2023/12/03 02:12:11;;;;;;;26.20;14.00;;;;;;;-1.86;92.30;99951.36;108763;279;156424;-73
2023/12/03 02:14:45;;;;;;;25.50;14.70;;;;;;;-1.86;92.15;99952.21;108914;279;38754;-73
2023/12/03 02:17:24;;;;;;;27.90;15.70;;;;;;;-1.88;92.10;99957.33;108761;280;190315;-72
2023/12/03 02:19:59;;;;;;;27.90;16.00;;;;;;;-1.91;92.04;99958.33;108641;279;175915;-69
2023/12/03 02:22:34;;;;;;;32.50;17.00;;;;;;;-1.94;92.09;99963.61;108845;279;38496;-71
2023/12/03 02:25:11;;;;;;;30.40;16.30;;;;;;;-1.95;92.14;99969.25;108719;279;155009;-74
2023/12/03 02:27:45;;;;;;;29.00;16.50;;;;;;;-1.98;92.03;99969.75;108837;279;38205;-74
2023/12/03 02:30:19;;;;;;;26.20;14.90;;;;;;;-1.95;92.25;99970.79;108705;279;154733;-71
2023/12/03 02:32:54;;;;;;;30.80;16.70;;;;;;;-1.93;92.19;99977.11;108901;279;38283;-72
2023/12/03 02:35:31;;;;;;;30.70;17.30;;;;;;;-1.91;92.47;99982.11;108872;280;39581;-72
2023/12/03 02:38:08;;;;;;;31.50;17.40;;;;;;;-1.88;92.58;99983.98;108706;279;154770;-71
2023/12/03 02:40:43;;;;;;;31.30;17.60;;;;;;;-1.88;92.53;99990.84;108830;280;39362;-74
2023/12/03 02:43:18;;;;;;;32.40;18.00;;;;;;;-1.89;92.55;99995.27;108576;279;177195;-73
2023/12/03 02:45:56;;;;;;;33.20;17.30;;;;;;;-1.89;92.31;99998.52;108833;280;38205;-71
2023/12/03 02:48:32;;;;;;;34.70;18.70;;;;;;;-1.89;92.25;100003.14;108110;279;868678;-72
2023/12/03 02:51:09;;;;;;;32.10;18.60;;;;;;;-1.88;92.34;100011.52;108859;279;40814;-74
2023/12/03 02:53:47;;;;;;;34.20;19.20;;;;;;;-1.87;92.33;100014.09;108828;280;39112;-71
2023/12/03 02:56:22;;;;;;;36.00;21.10;;;;;;;-1.89;92.29;100017.16;108758;279;155228;-72
2023/12/03 02:58:56;;;;;;;37.60;19.70;;;;;;;-1.90;92.27;100023.29;108714;280;173472;-72
2023/12/03 03:01:33;;;;;;;34.30;19.80;;;;;;;-1.94;92.27;100024.64;108711;279;156099;-71
2023/12/03 03:04:10;;;;;;;32.10;18.10;;;;;;;-1.94;92.21;100021.90;108858;279;38282;-72
2023/12/03 03:06:46;;;;;;;33.30;18.90;;;;;;;-1.94;92.27;100029.77;108703;279;156024;-74
2023/12/03 03:09:20;;;;;;;33.40;18.80;;;;;;;-1.96;92.03;100033.17;108830;279;39287;-73
2023/12/03 03:11:57;;;;;;;33.10;18.70;;;;;;;-1.98;92.08;100039.31;108883;276;38308;-73
2023/12/03 03:14:33;;;;;;;34.60;19.40;;;;;;;-2.01;92.15;100041.68;108798;279;154075;-73
2023/12/03 03:17:08;;;;;;;37.40;20.90;;;;;;;-2.05;92.16;100049.84;108800;280;40102;-71
2023/12/03 03:19:44;;;;;;;32.90;18.50;;;;;;;-2.12;91.91;100059.20;108776;279;154814;-73
2023/12/03 03:22:18;;;;;;;32.10;19.20;;;;;;;-2.15;91.80;100068.75;108822;279;38167;-72
2023/12/03 03:24:55;;;;;;;35.90;21.20;;;;;;;-2.17;91.85;100071.80;108757;279;154790;-73
2023/12/03 03:27:29;;;;;;;37.50;21.40;;;;;;;-2.18;92.02;100073.16;108838;279;39640;-73
2023/12/03 03:30:06;;;;;;;36.40;21.20;;;;;;;-2.19;92.02;100077.75;108908;280;38167;-72
2023/12/03 03:32:40;;;;;;;38.40;20.80;;;;;;;-2.22;92.08;100074.83;108905;279;38181;-74
2023/12/03 03:35:15;;;;;;;35.70;19.60;;;;;;;-2.21;92.27;100079.80;108829;280;38457;-69
2023/12/03 03:37:51;;;;;;;31.00;18.20;;;;;;;-2.16;92.57;100081.39;108770;279;155840;-69
2023/12/03 03:40:25;;;;;;;36.40;21.40;;;;;;;-2.14;92.25;100080.54;108898;279;38870;-70
2023/12/03 03:43:05;;;;;;;36.00;20.10;;;;;;;-2.10;92.56;100081.09;108715;279;154123;-73
2023/12/03 03:45:39;;;;;;;34.60;20.80;;;;;;;-2.04;92.85;100081.99;108878;279;38366;-70
2023/12/03 03:48:14;;;;;;;37.40;21.00;;;;;;;-2.03;92.74;100086.63;108650;280;154334;-69
2023/12/03 03:50:55;;;;;;;34.50;19.10;;;;;;;-2.03;92.49;100087.48;108881;279;38161;-71
2023/12/03 03:53:29;;;;;;;33.40;18.60;;;;;;;-2.04;92.39;100087.98;108858;280;38214;-71
2023/12/03 03:56:08;;;;;;;32.50;18.40;;;;;;;-2.02;92.41;100090.91;108751;279;154842;-74
2023/12/03 03:58:43;;;;;;;34.40;19.80;;;;;;;-1.98;92.50;100091.79;108858;279;38151;-73
2023/12/03 04:01:19;;;;;;;34.60;20.30;;;;;;;-1.99;92.08;100094.00;108044;279;919183;-73
2023/12/03 04:03:55;;;;;;;34.50;20.00;;;;;;;-2.02;92.08;100095.35;108859;279;38985;-72
2023/12/03 04:06:29;;;;;;;37.70;20.70;;;;;;;-2.01;92.22;100097.58;108685;279;154294;-71
2023/12/03 04:09:03;;;;;;;34.70;18.00;;;;;;;-2.06;91.97;100100.25;108925;279;39195;-73
2023/12/03 04:11:41;;;;;;;35.60;17.90;;;;;;;-2.08;92.01;100101.62;108895;280;38193;-73
2023/12/03 04:14:18;;;;;;;34.80;19.10;;;;;;;-2.12;91.80;100098.85;108785;279;156142;-74
2023/12/03 04:16:52;;;;;;;35.90;19.90;;;;;;;-2.14;91.73;100098.66;108846;280;39646;-74
2023/12/03 04:19:26;;;;;;;37.60;21.40;;;;;;;-2.14;91.92;100101.22;108702;279;154252;-72
2023/12/03 04:22:01;;;;;;;36.80;20.40;;;;;;;-2.15;92.02;100105.15;108856;279;38579;-72
2023/12/03 04:24:40;;;;;;;35.60;20.10;;;;;;;-2.16;92.07;100113.52;108723;279;155312;-70
2023/12/03 04:27:15;;;;;;;38.40;20.20;;;;;;;-2.17;92.21;100121.36;108858;279;39922;-71
2023/12/03 04:29:50;;;;;;;37.70;19.40;;;;;;;-2.17;92.25;100121.88;108829;280;38742;-69
2023/12/03 04:32:24;;;;;;;35.70;20.60;;;;;;;-2.19;91.96;100121.17;108730;279;155563;-69
2023/12/03 04:35:02;;;;;;;38.70;20.70;;;;;;;-2.19;92.11;100119.46;108741;280;173510;-72
2023/12/03 04:37:38;;;;;;;42.50;21.60;;;;;;;-2.16;92.32;100121.89;108753;279;154535;-72
2023/12/03 04:40:16;;;;;;;39.20;19.70;;;;;;;-2.14;92.29;100127.54;108875;279;38311;-71
2023/12/03 04:42:51;;;;;;;42.80;22.30;;;;;;;-2.15;92.20;100126.84;108672;278;154069;-72
2023/12/03 04:45:25;;;;;;;39.80;19.20;;;;;;;-2.17;92.11;100127.86;108865;278;40192;-69
2023/12/03 04:48:01;;;;;;;42.10;21.10;;;;;;;-2.18;92.12;100132.80;108844;279;176230;-70
2023/12/03 04:50:38;;;;;;;38.60;20.60;;;;;;;-2.19;92.24;100131.25;108739;279;154810;-71
2023/12/03 04:53:13;;;;;;;42.70;22.10;;;;;;;-2.17;92.34;100136.40;108822;280;38187;-70
2023/12/03 04:55:48;;;;;;;41.60;21.40;;;;;;;-2.14;92.41;100142.75;108776;279;156558;-71
2023/12/03 04:58:28;;;;;;;43.30;22.60;;;;;;;-2.05;93.01;100146.94;108734;280;176387;-71
2023/12/03 05:01:05;;;;;;;43.70;22.30;;;;;;;-2.02;92.85;100149.02;108731;279;154139;-72
2023/12/03 05:03:39;;;;;;;44.00;22.40;;;;;;;-2.02;92.82;100151.58;108894;279;38173;-72
2023/12/03 05:06:17;;;;;;;43.80;21.40;;;;;;;-2.02;92.70;100153.45;108687;280;155225;-73
2023/12/03 05:08:52;;;;;;;44.70;23.10;;;;;;;-2.00;92.67;100158.43;108927;278;38180;-72
2023/12/03 05:11:27;;;;;;;43.20;22.00;;;;;;;-1.98;92.73;100161.02;108997;279;40063;-72
2023/12/03 05:14:01;;;;;;;41.70;22.10;;;;;;;-1.95;92.77;100163.45;108697;278;154721;-69
2023/12/03 05:16:37;;;;;;;46.30;22.30;;;;;;;-1.90;93.11;100169.29;108960;278;38953;-70
2023/12/03 05:19:11;;;;;;;47.40;24.20;;;;;;;-1.88;92.93;100173.09;108826;279;155138;-70
2023/12/03 05:21:48;;;;;;;43.00;20.70;;;;;;;-1.88;92.95;100176.67;108839;279;38078;-72
2023/12/03 05:24:23;;;;;;;43.60;21.10;;;;;;;-1.89;92.73;100178.71;108753;279;156028;-71
2023/12/03 05:26:57;;;;;;;41.10;20.40;;;;;;;-1.87;92.84;100180.10;108859;279;39064;-72
2023/12/03 05:29:31;;;;;;;42.80;21.60;;;;;;;-1.82;93.01;100186.47;108832;280;39662;-71
2023/12/03 05:32:06;;;;;;;39.30;20.10;;;;;;;-1.76;93.08;100189.95;108771;279;154206;-71
2023/12/03 05:34:43;;;;;;;42.10;20.60;;;;;;;-1.73;92.99;100191.86;108872;279;38315;-70
2023/12/03 05:37:17;;;;;;;40.10;21.60;;;;;;;-1.75;92.73;100194.58;108744;276;154708;-71
2023/12/03 05:39:52;;;;;;;41.90;19.70;;;;;;;-1.75;92.83;100197.65;108898;279;38228;-71
2023/12/03 05:42:26;;;;;;;42.70;21.40;;;;;;;-1.76;92.72;100198.16;108753;279;155024;-71
2023/12/03 05:45:01;;;;;;;37.10;18.90;;;;;;;-1.74;92.61;100205.85;108913;279;39361;-71
2023/12/03 05:47:36;;;;;;;44.30;20.20;;;;;;;-1.74;92.50;100206.36;108851;280;38343;-71
2023/12/03 05:50:14;;;;;;;40.50;20.90;;;;;;;-1.71;92.80;100211.20;108708;279;154221;-74
2023/12/03 05:52:50;;;;;;;43.90;22.00;;;;;;;-1.64;93.19;100210.05;108845;280;39395;-72
2023/12/03 05:55:26;;;;;;;42.60;21.70;;;;;;;-1.62;92.97;100218.64;108732;279;154480;-73
2023/12/03 05:58:01;;;;;;;43.70;20.80;;;;;;;-1.63;92.87;100224.09;108869;279;38618;-73
2023/12/03 06:00:37;;;;;;;44.10;21.10;;;;;;;-1.63;92.84;100229.56;108751;277;156412;-73
2023/12/03 06:03:13;;;;;;;40.70;20.40;;;;;;;-1.61;92.82;100232.49;108884;279;38181;-73
2023/12/03 06:05:49;;;;;;;39.80;20.70;;;;;;;-1.59;92.87;100235.41;108911;280;38767;-72
2023/12/03 06:08:24;;;;;;;44.70;22.00;;;;;;;-1.53;93.02;100238.71;108755;279;155206;-72
2023/12/03 06:10:58;;;;;;;44.10;23.20;;;;;;;-1.49;93.11;100242.00;108859;280;38175;-68
2023/12/03 06:13:33;;;;;;;44.70;22.20;;;;;;;-1.50;92.74;100242.52;108768;272;154239;-71
2023/12/03 06:16:14;;;;;;;42.00;20.10;;;;;;;-1.51;92.78;100248.31;108884;279;38347;-71
2023/12/03 06:18:48;;;;;;;38.80;21.10;;;;;;;-1.51;92.70;100248.31;108712;279;155052;-70
2023/12/03 06:21:23;;;;;;;38.90;20.60;;;;;;;-1.54;92.36;100253.60;108832;279;38301;-70
2023/12/03 06:23:57;;;;;;;40.30;21.50;;;;;;;-1.55;92.34;100260.77;108823;280;40972;-69
2023/12/03 06:26:30;;;;;;;43.30;21.90;;;;;;;-1.52;92.45;100260.97;108696;279;153806;-70
2023/12/03 06:29:06;;;;;;;44.60;22.40;;;;;;;-1.48;92.54;100262.38;108838;280;39931;-70
2023/12/03 06:31:41;;;;;;;44.40;21.70;;;;;;;-1.46;92.71;100267.02;108777;279;154672;-68
2023/12/03 06:34:16;;;;;;;38.50;20.50;;;;;;;-1.46;92.51;100268.39;108851;279;38432;-72
2023/12/03 06:36:51;;;;;;;40.60;21.00;;;;;;;-1.47;92.33;100268.88;108683;279;157296;-71
2023/12/03 06:39:25;;;;;;;45.80;22.90;;;;;;;-1.49;92.15;100271.94;108840;279;39690;-72
2023/12/03 06:42:02;;;;;;;42.80;23.20;;;;;;;-1.50;92.07;100268.51;108851;280;39515;-70
2023/12/03 06:44:38;;;;;;;43.40;22.80;;;;;;;-1.50;92.08;100276.55;108799;279;155327;-71
2023/12/03 06:47:12;;;;;;;44.70;23.40;;;;;;;-1.49;92.35;100278.95;108859;280;38302;-72
2023/12/03 06:49:48;;;;;;;49.50;24.60;;;;;;;-1.46;92.48;100282.58;108739;278;154102;-73
2023/12/03 06:52:22;;;;;;;44.20;22.60;;;;;;;-1.47;92.35;100281.02;108940;278;38445;-73
2023/12/03 06:54:57;;;;;;;46.60;22.50;;;;;;;-1.49;92.29;100284.42;108802;279;155065;-70
2023/12/03 06:57:31;;;;;;;44.90;21.50;;;;;;;-1.48;92.44;100283.58;108842;279;38314;-72
2023/12/03 07:00:09;;;;;;;46.20;24.20;;;;;;;-1.40;92.67;100286.39;108849;280;39963;-69
2023/12/03 07:02:50;;;;;;;48.90;23.90;;;;;;;-1.36;92.64;100292.95;108800;279;155179;-72
2023/12/03 07:05:25;;;;;;;49.60;25.00;;;;;;;-1.34;92.56;100297.91;108844;280;39441;-71
2023/12/03 07:08:00;;;;;;;56.10;26.50;;;;;;;-1.31;92.65;100300.00;108698;279;155398;-73
2023/12/03 07:10:34;;;;;;;51.30;24.30;;;;;;;-1.28;92.80;100305.16;108918;279;38321;-70
2023/12/03 07:13:09;;;;;;;51.60;25.20;;;;;;;-1.26;92.66;100307.05;108804;279;155860;-71
2023/12/03 07:15:43;;;;;;;51.20;24.50;;;;;;;-1.25;92.48;100309.63;108855;279;39935;-70
2023/12/03 07:18:19;;;;;;;48.00;24.60;;;;;;;-1.23;92.53;100312.91;108811;280;39579;-70
2023/12/03 07:20:57;;;;;;;51.10;24.10;;;;;;;-1.18;92.62;100315.52;108897;280;41745;-70
2023/12/03 07:23:35;;;;;;;51.40;25.70;;;;;;;-1.13;92.71;100316.58;108877;280;38808;-68
2023/12/03 07:26:20;;;;;;;48.30;24.70;;;;;;;-1.12;92.54;100315.90;108719;279;155232;-68
2023/12/03 07:29:00;;;;;;;47.10;23.30;;;;;;;-1.14;92.32;100316.23;108973;279;38727;-70
2023/12/03 07:31:38;;;;;;;49.30;22.90;;;;;;;-1.16;92.15;100316.39;108784;279;155629;-71
2023/12/03 07:34:12;;;;;;;47.40;23.90;;;;;;;-1.14;92.25;100315.71;108897;279;38818;-71
2023/12/03 07:36:52;;;;;;;44.90;24.30;;;;;;;-1.10;92.15;100319.17;108683;279;158703;-69
2023/12/03 07:39:31;;;;;;;42.90;21.90;;;;;;;-1.08;92.27;100317.67;108901;279;38307;-73
2023/12/03 07:42:07;;;;;;;49.60;24.20;;;;;;;-1.02;92.29;100318.40;108855;280;39305;-74
2023/12/03 07:44:41;;;;;;;44.80;22.60;;;;;;;-0.99;92.29;100319.77;108766;279;153940;-72
2023/12/03 07:47:16;;;;;;;42.10;21.90;;;;;;;-1.01;92.03;100324.21;108822;280;38591;-72
2023/12/03 07:49:52;;;;;;;43.00;21.50;;;;;;;-1.00;92.09;100327.13;108679;279;155895;-72
2023/12/03 07:52:28;;;;;;;42.90;20.90;;;;;;;-0.98;91.99;100328.17;108717;279;175902;-72
2023/12/03 07:55:03;;;;;;;41.40;21.70;;;;;;;-0.94;92.01;100328.37;108730;279;155145;-73
2023/12/03 07:57:39;;;;;;;40.80;21.40;;;;;;;-0.89;92.07;100329.09;108857;279;38789;-72
2023/12/03 08:00:18;;;;;;;43.20;22.40;;;;;;;-0.87;91.98;100327.58;108801;280;38309;-73
2023/12/03 08:02:53;;;;;;;45.10;22.50;;;;;;;-0.85;91.79;100330.67;108804;280;39572;-73
2023/12/03 08:05:31;;;;;;;43.50;22.60;;;;;;;-0.83;91.83;100335.33;108789;280;38201;-73
2023/12/03 08:08:07;;;;;;;41.20;20.50;;;;;;;-0.83;91.40;100332.23;108790;279;154917;-73
2023/12/03 08:10:42;;;;;;;40.10;22.10;;;;;;;-0.85;91.12;100334.79;108856;279;38360;-72
2023/12/03 08:13:16;;;;;;;39.80;20.90;;;;;;;-0.84;91.16;100338.73;108612;279;176116;-73
2023/12/03 08:15:52;;;;;;;42.10;22.20;;;;;;;-0.82;91.20;100344.06;108175;279;919584;-71
2023/12/03 08:18:28;;;;;;;42.10;22.30;;;;;;;-0.78;91.49;100343.42;108706;280;155444;-72
2023/12/03 08:21:03;;;;;;;41.10;21.70;;;;;;;-0.76;91.31;100342.56;108885;279;39919;-70
2023/12/03 08:23:43;;;;;;;40.80;22.20;;;;;;;-0.73;91.45;100349.62;108844;280;39321;-72
2023/12/03 08:26:17;;;;;;;44.40;22.40;;;;;;;-0.68;91.38;100351.72;108739;279;154680;-71
2023/12/03 08:28:52;;;;;;;37.20;20.90;;;;;;;-0.63;91.48;100354.31;108873;279;38271;-72
2023/12/03 08:31:27;;;;;;;39.10;22.10;;;;;;;-0.53;91.85;100354.20;108580;279;176102;-70
2023/12/03 08:34:02;;;;;;;37.20;21.20;;;;;;;-0.42;91.80;100355.30;108908;279;38151;-72
2023/12/03 08:36:37;;;;;;;38.00;20.90;;;;;;;-0.34;91.55;100353.81;108742;279;155084;-73
2023/12/03 08:39:15;;;;;;;34.50;19.90;;;;;;;-0.30;91.32;100359.14;108929;279;38226;-73
2023/12/03 08:41:51;;;;;;;37.20;20.90;;;;;;;-0.24;91.22;100362.63;108849;280;38447;-75
2023/12/03 08:44:29;;;;;;;39.40;20.60;;;;;;;-0.17;91.40;100366.76;108737;279;153906;-71
2023/12/03 08:47:03;;;;;;;36.00;19.50;;;;;;;-0.12;91.01;100370.91;108829;280;40158;-73
2023/12/03 08:49:39;;;;;;;32.50;18.50;;;;;;;-0.08;90.63;100367.67;108713;278;154110;-73
2023/12/03 08:52:13;;;;;;;34.20;18.70;;;;;;;-0.06;90.57;100371.79;108855;279;38959;-70
2023/12/03 08:54:50;;;;;;;33.40;19.10;;;;;;;0.01;90.66;100375.95;108853;279;154683;-72
2023/12/03 08:57:27;;;;;;;36.40;21.00;;;;;;;0.00;90.07;100381.77;108884;279;38420;-74
2023/12/03 09:00:07;;;;;;;37.90;20.80;;;;;;;-0.02;89.91;100386.23;108781;280;175666;-70
2023/12/03 09:02:44;;;;;;;34.60;17.90;;;;;;;-0.05;89.90;100385.85;108767;279;155798;-70
2023/12/03 09:05:25;;;;;;;32.90;18.50;;;;;;;-0.02;89.58;100393.42;108849;280;38430;-70
2023/12/03 09:08:02;;;;;;;34.10;18.40;;;;;;;-0.02;89.71;100394.45;108713;279;154259;-70
2023/12/03 09:10:42;;;;;;;33.60;19.10;;;;;;;0.04;89.94;100397.05;108856;279;38526;-73
2023/12/03 09:13:16;;;;;;;32.50;18.80;;;;;;;0.07;89.76;100397.76;108713;279;153788;-71
2023/12/03 09:15:56;;;;;;;38.10;20.30;;;;;;;0.07;89.57;100402.23;108876;279;38837;-70
2023/12/03 09:18:33;;;;;;;35.50;19.50;;;;;;;0.08;89.63;100403.42;108745;280;153963;-71
2023/12/03 09:21:11;;;;;;;35.60;19.90;;;;;;;0.12;89.58;100396.59;108873;279;39365;-74
2023/12/03 09:23:50;;;;;;;37.70;20.50;;;;;;;0.10;89.16;100400.68;108912;280;37811;-72
2023/12/03 09:26:22;;;;;;;;;;;;;;;0.12;89.30;100402.93;108745;279;153921;-73
2023/12/03 09:29:00;;;;;;;40.10;21.90;;;;;;;0.08;89.20;100404.10;108888;279;38155;-71
2023/12/03 09:31:34;;;;;;;44.00;24.00;;;;;;;0.07;89.09;100410.79;108062;279;917488;-72
2023/12/03 09:34:13;;;;;;;40.50;21.70;;;;;;;0.04;89.05;100415.41;108867;279;39312;-72
2023/12/03 09:36:45;;;;;;;;;;;;;;;0.04;89.37;100415.05;108739;279;154169;-72
2023/12/03 09:39:20;;;;;;;43.60;21.60;;;;;;;0.05;89.76;100417.80;108865;279;39335;-72
2023/12/03 09:42:05;;;;;;;40.00;22.00;;;;;;;0.06;89.36;100417.66;108849;280;39128;-72
2023/12/03 09:44:45;;;;;;;42.70;23.00;;;;;;;0.12;89.75;100418.20;108773;279;154245;-70
2023/12/03 09:47:23;;;;;;;47.30;23.30;;;;;;;0.19;90.04;100418.06;108868;280;38533;-70
2023/12/03 09:49:58;;;;;;;42.60;22.60;;;;;;;0.27;89.92;100416.21;108745;279;154371;-72
2023/12/03 09:52:40;;;;;;;46.00;23.30;;;;;;;0.28;89.67;100413.63;108788;280;38716;-72
2023/12/03 09:55:15;;;;;;;43.40;22.80;;;;;;;0.30;89.83;100416.23;108750;279;153979;-69
2023/12/03 09:57:52;;;;;;;45.20;22.40;;;;;;;0.34;89.71;100416.58;108810;279;38748;-68
2023/12/03 10:00:31;;;;;;;46.20;23.60;;;;;;;0.37;89.66;100414.20;108886;280;38657;-73
2023/12/03 10:03:08;;;;;;;49.00;24.70;;;;;;;0.40;89.52;100415.92;108770;280;38907;-71
2023/12/03 10:05:46;;;;;;;46.80;24.70;;;;;;;0.38;89.23;100418.48;108851;280;39171;-73
2023/12/03 10:08:29;;;;;;;50.10;25.40;;;;;;;0.37;89.39;100416.27;108733;278;153952;-74
2023/12/03 10:11:08;;;;;;;47.70;23.10;;;;;;;0.32;89.03;100419.16;108811;279;38345;-74
2023/12/03 10:13:46;;;;;;;46.60;22.50;;;;;;;0.28;89.14;100423.77;108731;279;155400;-71
2023/12/03 10:16:22;;;;;;;46.20;23.80;;;;;;;0.30;89.39;100428.92;108908;279;38341;-70
2023/12/03 10:19:02;;;;;;;50.20;24.90;;;;;;;0.37;89.75;100431.88;108740;279;154362;-70
2023/12/03 10:21:39;;;;;;;50.50;26.30;;;;;;;0.41;89.52;100432.40;108872;279;39334;-71
2023/12/03 10:24:16;;;;;;;50.10;25.20;;;;;;;0.39;89.30;100438.23;108866;280;38625;-69
2023/12/03 10:26:59;;;;;;;54.40;26.90;;;;;;;0.37;89.22;100439.59;108752;277;154563;-69
2023/12/03 10:29:33;;;;;;;50.90;25.10;;;;;;;0.37;89.40;100441.99;108836;280;38635;-71
2023/12/03 10:32:10;;;;;;;48.80;24.60;;;;;;;0.38;89.36;100442.16;108691;279;155247;-72
2023/12/03 10:34:53;;;;;;;50.50;25.40;;;;;;;0.39;89.38;100443.20;108883;279;38478;-72
2023/12/03 10:37:29;;;;;;;48.50;24.90;;;;;;;0.42;89.45;100443.73;108663;279;155541;-70
2023/12/03 10:40:07;;;;;;;51.50;25.40;;;;;;;0.43;89.21;100447.52;108911;279;38375;-71
2023/12/03 10:42:42;;;;;;;50.10;26.80;;;;;;;0.43;89.36;100453.86;108703;279;154151;-71
2023/12/03 10:45:20;;;;;;;51.80;25.40;;;;;;;0.47;89.78;100454.05;108902;279;39718;-70
2023/12/03 10:48:00;;;;;;;52.70;24.50;;;;;;;0.47;89.43;100453.20;108200;280;888575;-71
2023/12/03 10:50:43;;;;;;;45.20;22.70;;;;;;;0.45;89.44;100456.45;108755;279;155779;-73
2023/12/03 10:53:19;;;;;;;46.30;24.60;;;;;;;0.48;89.49;100461.95;108781;280;38533;-71
2023/12/03 10:55:55;;;;;;;48.70;25.40;;;;;;;0.49;89.46;100460.76;108591;278;176032;-70
2023/12/03 10:58:34;;;;;;;51.00;26.70;;;;;;;0.49;89.46;100457.14;108986;278;38764;-70
2023/12/03 11:01:17;;;;;;;57.00;29.30;;;;;;;0.52;89.72;100461.11;108850;279;155243;-70
2023/12/03 11:04:03;;;;;;;60.50;27.30;;;;;;;0.53;89.72;100460.59;108929;280;39537;-71
2023/12/03 11:06:38;;;;;;;56.20;26.40;;;;;;;0.54;89.60;100462.48;108761;280;156105;-70
2023/12/03 11:09:12;;;;;;;53.70;27.30;;;;;;;0.58;89.75;100464.90;108908;279;38182;-72
2023/12/03 11:11:47;;;;;;;56.80;28.50;;;;;;;0.60;89.51;100473.67;108812;280;39378;-71
2023/12/03 11:14:23;;;;;;;57.40;30.30;;;;;;;0.59;89.51;100472.64;108699;279;153896;-71
2023/12/03 11:17:03;;;;;;;57.20;29.20;;;;;;;0.58;89.58;100475.89;108939;279;38192;-70
2023/12/03 11:19:41;;;;;;;55.10;27.70;;;;;;;0.55;89.45;100476.05;108846;279;153746;-72
2023/12/03 11:22:25;;;;;;;58.80;27.70;;;;;;;0.52;89.40;100480.17;108829;279;39640;-73
2023/12/03 11:25:02;;;;;;;60.00;29.50;;;;;;;0.52;89.57;100483.42;108733;279;154823;-72
2023/12/03 11:27:39;;;;;;;61.00;29.30;;;;;;;0.54;89.44;100484.29;108968;279;38970;-72
2023/12/03 11:30:19;;;;;;;59.20;30.20;;;;;;;0.54;89.64;100486.52;108850;279;39500;-69
2023/12/03 11:32:59;;;;;;;63.20;32.90;;;;;;;0.56;89.82;100488.08;108743;279;155115;-69
2023/12/03 11:35:34;;;;;;;62.90;31.70;;;;;;;0.56;89.78;100487.21;108879;280;38761;-68
2023/12/03 11:38:16;;;;;;;58.80;28.60;;;;;;;0.55;89.82;100490.80;108738;279;154401;-68
2023/12/03 11:40:51;;;;;;;56.50;27.20;;;;;;;0.58;90.02;100489.80;108862;279;38943;-72
2023/12/03 11:43:37;;;;;;;54.90;28.10;;;;;;;0.62;90.16;100493.08;108673;279;155785;-71
2023/12/03 11:46:17;;;;;;;54.70;28.40;;;;;;;0.66;90.05;100494.98;108835;279;39649;-70
2023/12/03 11:48:54;;;;;;;59.30;29.30;;;;;;;0.69;90.04;100494.14;108696;279;154932;-70
2023/12/03 11:51:29;;;;;;;54.60;27.70;;;;;;;0.72;90.19;100492.95;108868;280;38530;-68